sensor_id;sensor_type;location;lat;lon;timestamp;temperature;humidity
3418;DHT22;68007;51.312;12.372;2023-04-25T00:01:06;10.50;88.90
3418;DHT22;68007;51.312;12.372;2023-04-25T00:03:36;10.20;90.10
3418;DHT22;68007;51.312;12.372;2023-04-25T00:06:05;10.10;90.10
3418;DHT22;68007;51.312;12.372;2023-04-25T00:08:33;10.10;90.70
3418;DHT22;68007;51.312;12.372;2023-04-25T00:11:00;10.00;90.70
3418;DHT22;68007;51.312;12.372;2023-04-25T00:13:28;10.10;91.00
3418;DHT22;68007;51.312;12.372;2023-04-25T00:15:56;10.10;90.80
3418;DHT22;68007;51.312;12.372;2023-04-25T00:18:24;10.20;90.20
3418;DHT22;68007;51.312;12.372;2023-04-25T00:20:56;10.20;90.10
3418;DHT22;68007;51.312;12.372;2023-04-25T00:23:23;10.20;91.60
3418;DHT22;68007;51.312;12.372;2023-04-25T00:25:51;10.10;91.20
3418;DHT22;68007;51.312;12.372;2023-04-25T00:28:18;10.00;91.00
3418;DHT22;68007;51.312;12.372;2023-04-25T00:30:46;10.00;90.60
3418;DHT22;68007;51.312;12.372;2023-04-25T00:33:14;10.00;90.50
3418;DHT22;68007;51.312;12.372;2023-04-25T00:35:42;10.00;90.60
3418;DHT22;68007;51.312;12.372;2023-04-25T00:38:11;9.80;91.00
3418;DHT22;68007;51.312;12.372;2023-04-25T00:40:38;9.70;91.20
3418;DHT22;68007;51.312;12.372;2023-04-25T00:43:06;9.80;90.80
3418;DHT22;68007;51.312;12.372;2023-04-25T00:45:35;9.90;90.40
3418;DHT22;68007;51.312;12.372;2023-04-25T00:48:05;9.90;90.90
3418;DHT22;68007;51.312;12.372;2023-04-25T00:50:33;9.80;90.50
3418;DHT22;68007;51.312;12.372;2023-04-25T00:53:01;9.90;90.70
3418;DHT22;68007;51.312;12.372;2023-04-25T00:55:31;9.90;90.40
3418;DHT22;68007;51.312;12.372;2023-04-25T00:57:58;9.90;90.90
3418;DHT22;68007;51.312;12.372;2023-04-25T01:00:26;9.90;90.40
3418;DHT22;68007;51.312;12.372;2023-04-25T01:02:54;9.90;91.00
3418;DHT22;68007;51.312;12.372;2023-04-25T01:05:21;9.60;91.30
3418;DHT22;68007;51.312;12.372;2023-04-25T01:07:49;9.60;91.40
3418;DHT22;68007;51.312;12.372;2023-04-25T01:10:16;9.40;92.00
3418;DHT22;68007;51.312;12.372;2023-04-25T01:12:45;9.30;91.90
3418;DHT22;68007;51.312;12.372;2023-04-25T01:15:13;9.20;92.30
3418;DHT22;68007;51.312;12.372;2023-04-25T01:17:41;9.00;92.80
3418;DHT22;68007;51.312;12.372;2023-04-25T01:20:11;8.90;93.00
3418;DHT22;68007;51.312;12.372;2023-04-25T01:22:42;8.80;93.10
3418;DHT22;68007;51.312;12.372;2023-04-25T01:25:10;8.70;93.30
3418;DHT22;68007;51.312;12.372;2023-04-25T01:27:37;8.70;93.30
3418;DHT22;68007;51.312;12.372;2023-04-25T01:30:06;8.60;93.50
3418;DHT22;68007;51.312;12.372;2023-04-25T01:32:34;8.60;93.40
3418;DHT22;68007;51.312;12.372;2023-04-25T01:35:05;8.60;93.40
3418;DHT22;68007;51.312;12.372;2023-04-25T01:37:35;8.60;93.20
3418;DHT22;68007;51.312;12.372;2023-04-25T01:40:06;8.70;92.90
3418;DHT22;68007;51.312;12.372;2023-04-25T01:42:35;8.60;93.30
3418;DHT22;68007;51.312;12.372;2023-04-25T01:45:03;8.60;93.20
3418;DHT22;68007;51.312;12.372;2023-04-25T01:47:30;8.70;93.30
3418;DHT22;68007;51.312;12.372;2023-04-25T01:49:58;8.90;92.30
3418;DHT22;68007;51.312;12.372;2023-04-25T01:52:26;9.00;92.00
3418;DHT22;68007;51.312;12.372;2023-04-25T01:54:54;9.10;91.70
3418;DHT22;68007;51.312;12.372;2023-04-25T01:57:23;9.20;91.40
3418;DHT22;68007;51.312;12.372;2023-04-25T01:59:50;9.10;91.90
3418;DHT22;68007;51.312;12.372;2023-04-25T02:02:19;9.10;92.00
3418;DHT22;68007;51.312;12.372;2023-04-25T02:04:47;9.10;91.50
3418;DHT22;68007;51.312;12.372;2023-04-25T02:07:14;9.20;91.40
3418;DHT22;68007;51.312;12.372;2023-04-25T02:09:42;9.20;91.30
3418;DHT22;68007;51.312;12.372;2023-04-25T02:12:10;9.30;90.90
3418;DHT22;68007;51.312;12.372;2023-04-25T02:14:39;9.20;91.50
3418;DHT22;68007;51.312;12.372;2023-04-25T02:17:07;9.10;91.40
3418;DHT22;68007;51.312;12.372;2023-04-25T02:19:34;9.20;91.40
3418;DHT22;68007;51.312;12.372;2023-04-25T02:22:02;9.10;91.40
3418;DHT22;68007;51.312;12.372;2023-04-25T02:24:29;9.10;91.70
3418;DHT22;68007;51.312;12.372;2023-04-25T02:26:58;9.00;92.10
3418;DHT22;68007;51.312;12.372;2023-04-25T02:29:25;8.80;92.30
3418;DHT22;68007;51.312;12.372;2023-04-25T02:31:54;8.80;91.90
3418;DHT22;68007;51.312;12.372;2023-04-25T02:34:22;8.60;92.70
3418;DHT22;68007;51.312;12.372;2023-04-25T02:36:49;8.50;93.10
3418;DHT22;68007;51.312;12.372;2023-04-25T02:39:17;8.40;93.30
3418;DHT22;68007;51.312;12.372;2023-04-25T02:41:45;8.20;93.80
3418;DHT22;68007;51.312;12.372;2023-04-25T02:44:12;8.10;94.00
3418;DHT22;68007;51.312;12.372;2023-04-25T02:46:40;8.20;93.60
3418;DHT22;68007;51.312;12.372;2023-04-25T02:49:09;8.20;93.80
3418;DHT22;68007;51.312;12.372;2023-04-25T02:51:36;8.30;93.50
3418;DHT22;68007;51.312;12.372;2023-04-25T02:54:04;8.30;93.60
3418;DHT22;68007;51.312;12.372;2023-04-25T02:56:32;8.30;93.70
3418;DHT22;68007;51.312;12.372;2023-04-25T02:59:00;8.30;93.30
3418;DHT22;68007;51.312;12.372;2023-04-25T03:01:27;8.20;93.80
3418;DHT22;68007;51.312;12.372;2023-04-25T03:03:55;8.30;93.70
3418;DHT22;68007;51.312;12.372;2023-04-25T03:06:24;8.40;93.20
3418;DHT22;68007;51.312;12.372;2023-04-25T03:08:51;8.60;92.50
3418;DHT22;68007;51.312;12.372;2023-04-25T03:11:19;8.60;92.40
3418;DHT22;68007;51.312;12.372;2023-04-25T03:13:47;8.60;92.40
3418;DHT22;68007;51.312;12.372;2023-04-25T03:16:15;8.70;92.10
3418;DHT22;68007;51.312;12.372;2023-04-25T03:18:42;8.60;92.30
3418;DHT22;68007;51.312;12.372;2023-04-25T03:21:10;8.60;92.20
3418;DHT22;68007;51.312;12.372;2023-04-25T03:23:38;8.60;92.00
3418;DHT22;68007;51.312;12.372;2023-04-25T03:26:06;8.60;91.90
3418;DHT22;68007;51.312;12.372;2023-04-25T03:28:33;8.70;91.70
3418;DHT22;68007;51.312;12.372;2023-04-25T03:31:01;8.80;91.50
3418;DHT22;68007;51.312;12.372;2023-04-25T03:33:29;8.80;91.60
3418;DHT22;68007;51.312;12.372;2023-04-25T03:35:56;8.70;91.90
3418;DHT22;68007;51.312;12.372;2023-04-25T03:38:24;8.60;91.80
3418;DHT22;68007;51.312;12.372;2023-04-25T03:40:53;8.60;92.00
3418;DHT22;68007;51.312;12.372;2023-04-25T03:43:22;8.40;92.70
3418;DHT22;68007;51.312;12.372;2023-04-25T03:45:49;8.40;92.20
3418;DHT22;68007;51.312;12.372;2023-04-25T03:48:17;8.40;92.20
3418;DHT22;68007;51.312;12.372;2023-04-25T03:50:47;8.40;92.10
3418;DHT22;68007;51.312;12.372;2023-04-25T03:53:14;8.40;92.10
3418;DHT22;68007;51.312;12.372;2023-04-25T03:55:42;8.50;91.70
3418;DHT22;68007;51.312;12.372;2023-04-25T03:58:11;8.50;92.40
3418;DHT22;68007;51.312;12.372;2023-04-25T04:00:38;8.40;92.40
3418;DHT22;68007;51.312;12.372;2023-04-25T04:03:06;8.20;92.70
3418;DHT22;68007;51.312;12.372;2023-04-25T04:05:34;8.20;92.40
3418;DHT22;68007;51.312;12.372;2023-04-25T04:08:01;8.30;92.40
3418;DHT22;68007;51.312;12.372;2023-04-25T04:10:29;8.30;91.90
3418;DHT22;68007;51.312;12.372;2023-04-25T04:12:56;8.30;92.30
3418;DHT22;68007;51.312;12.372;2023-04-25T04:15:25;8.40;92.00
3418;DHT22;68007;51.312;12.372;2023-04-25T04:17:52;8.30;92.20
3418;DHT22;68007;51.312;12.372;2023-04-25T04:20:21;8.20;92.50
3418;DHT22;68007;51.312;12.372;2023-04-25T04:22:48;8.10;92.60
3418;DHT22;68007;51.312;12.372;2023-04-25T04:25:16;8.10;92.20
3418;DHT22;68007;51.312;12.372;2023-04-25T04:27:44;8.20;92.40
3418;DHT22;68007;51.312;12.372;2023-04-25T04:30:12;8.10;92.70
3418;DHT22;68007;51.312;12.372;2023-04-25T04:32:41;8.10;92.70
3418;DHT22;68007;51.312;12.372;2023-04-25T04:35:09;8.00;92.90
3418;DHT22;68007;51.312;12.372;2023-04-25T04:37:37;8.10;92.20
3418;DHT22;68007;51.312;12.372;2023-04-25T04:40:06;8.20;92.60
3418;DHT22;68007;51.312;12.372;2023-04-25T04:42:33;8.20;92.30
3418;DHT22;68007;51.312;12.372;2023-04-25T04:45:02;8.20;92.20
3418;DHT22;68007;51.312;12.372;2023-04-25T04:47:30;8.30;92.00
3418;DHT22;68007;51.312;12.372;2023-04-25T04:50:00;8.30;91.80
3418;DHT22;68007;51.312;12.372;2023-04-25T04:52:27;8.40;91.50
3418;DHT22;68007;51.312;12.372;2023-04-25T04:54:54;8.40;91.60
3418;DHT22;68007;51.312;12.372;2023-04-25T04:57:22;8.40;91.50
3418;DHT22;68007;51.312;12.372;2023-04-25T04:59:50;8.40;91.90
3418;DHT22;68007;51.312;12.372;2023-04-25T05:02:17;8.40;92.00
3418;DHT22;68007;51.312;12.372;2023-04-25T05:04:45;8.50;92.20
3418;DHT22;68007;51.312;12.372;2023-04-25T05:07:14;8.40;91.90
3418;DHT22;68007;51.312;12.372;2023-04-25T05:09:41;8.40;91.70
3418;DHT22;68007;51.312;12.372;2023-04-25T05:12:09;8.50;91.90
3418;DHT22;68007;51.312;12.372;2023-04-25T05:14:37;8.40;92.50
3418;DHT22;68007;51.312;12.372;2023-04-25T05:17:04;8.40;91.80
3418;DHT22;68007;51.312;12.372;2023-04-25T05:19:34;8.40;92.60
3418;DHT22;68007;51.312;12.372;2023-04-25T05:22:02;8.30;92.90
3418;DHT22;68007;51.312;12.372;2023-04-25T05:24:31;8.30;92.40
3418;DHT22;68007;51.312;12.372;2023-04-25T05:26:58;8.40;92.50
3418;DHT22;68007;51.312;12.372;2023-04-25T05:29:26;8.40;92.20
3418;DHT22;68007;51.312;12.372;2023-04-25T05:31:53;8.30;92.70
3418;DHT22;68007;51.312;12.372;2023-04-25T05:34:21;8.40;92.40
3418;DHT22;68007;51.312;12.372;2023-04-25T05:36:48;8.40;92.60
3418;DHT22;68007;51.312;12.372;2023-04-25T05:39:16;8.30;92.50
3418;DHT22;68007;51.312;12.372;2023-04-25T05:41:45;8.20;93.10
3418;DHT22;68007;51.312;12.372;2023-04-25T05:44:13;8.20;93.50
3418;DHT22;68007;51.312;12.372;2023-04-25T05:46:42;8.00;93.90
3418;DHT22;68007;51.312;12.372;2023-04-25T05:49:09;7.90;94.10
3418;DHT22;68007;51.312;12.372;2023-04-25T05:51:37;7.80;94.20
3418;DHT22;68007;51.312;12.372;2023-04-25T05:54:04;7.80;94.50
3418;DHT22;68007;51.312;12.372;2023-04-25T05:56:32;7.90;94.30
3418;DHT22;68007;51.312;12.372;2023-04-25T05:59:01;7.90;94.50
3418;DHT22;68007;51.312;12.372;2023-04-25T06:01:29;8.00;94.40
3418;DHT22;68007;51.312;12.372;2023-04-25T06:03:57;8.00;94.40
3418;DHT22;68007;51.312;12.372;2023-04-25T06:06:24;7.90;94.30
3418;DHT22;68007;51.312;12.372;2023-04-25T06:08:53;7.70;94.80
3418;DHT22;68007;51.312;12.372;2023-04-25T06:11:20;7.70;95.00
3418;DHT22;68007;51.312;12.372;2023-04-25T06:13:48;7.90;94.90
3418;DHT22;68007;51.312;12.372;2023-04-25T06:16:17;7.80;94.60
3418;DHT22;68007;51.312;12.372;2023-04-25T06:18:45;7.70;94.60
3418;DHT22;68007;51.312;12.372;2023-04-25T06:21:12;7.60;94.90
3418;DHT22;68007;51.312;12.372;2023-04-25T06:23:40;7.60;94.80
3418;DHT22;68007;51.312;12.372;2023-04-25T06:26:07;7.60;95.00
3418;DHT22;68007;51.312;12.372;2023-04-25T06:28:35;7.80;94.80
3418;DHT22;68007;51.312;12.372;2023-04-25T06:31:02;7.70;94.90
3418;DHT22;68007;51.312;12.372;2023-04-25T06:33:31;7.70;94.80
3418;DHT22;68007;51.312;12.372;2023-04-25T06:35:58;7.70;94.90
3418;DHT22;68007;51.312;12.372;2023-04-25T06:38:26;7.80;94.80
3418;DHT22;68007;51.312;12.372;2023-04-25T06:40:53;7.90;94.90
3418;DHT22;68007;51.312;12.372;2023-04-25T06:43:21;7.90;95.00
3418;DHT22;68007;51.312;12.372;2023-04-25T06:45:48;7.90;95.00
3418;DHT22;68007;51.312;12.372;2023-04-25T06:48:16;8.00;95.00
3418;DHT22;68007;51.312;12.372;2023-04-25T06:50:45;8.10;94.90
3418;DHT22;68007;51.312;12.372;2023-04-25T06:53:12;8.10;94.60
3418;DHT22;68007;51.312;12.372;2023-04-25T06:55:40;8.10;94.70
3418;DHT22;68007;51.312;12.372;2023-04-25T06:58:07;8.00;95.00
3418;DHT22;68007;51.312;12.372;2023-04-25T07:00:35;8.10;95.20
3418;DHT22;68007;51.312;12.372;2023-04-25T07:03:02;8.20;95.10
3418;DHT22;68007;51.312;12.372;2023-04-25T07:05:30;8.20;95.00
3418;DHT22;68007;51.312;12.372;2023-04-25T07:07:59;8.20;95.20
3418;DHT22;68007;51.312;12.372;2023-04-25T07:10:26;8.20;95.10
3418;DHT22;68007;51.312;12.372;2023-04-25T07:12:54;8.20;94.90
3418;DHT22;68007;51.312;12.372;2023-04-25T07:15:21;8.20;94.80
3418;DHT22;68007;51.312;12.372;2023-04-25T07:17:49;8.20;94.90
3418;DHT22;68007;51.312;12.372;2023-04-25T07:20:17;8.10;95.00
3418;DHT22;68007;51.312;12.372;2023-04-25T07:22:45;8.20;95.00
3418;DHT22;68007;51.312;12.372;2023-04-25T07:25:14;8.20;94.80
3418;DHT22;68007;51.312;12.372;2023-04-25T07:27:41;8.30;94.90
3418;DHT22;68007;51.312;12.372;2023-04-25T07:30:09;8.40;94.80
3418;DHT22;68007;51.312;12.372;2023-04-25T07:32:37;8.60;94.70
3418;DHT22;68007;51.312;12.372;2023-04-25T07:35:05;8.50;94.50
3418;DHT22;68007;51.312;12.372;2023-04-25T07:37:33;8.50;94.60
3418;DHT22;68007;51.312;12.372;2023-04-25T07:40:01;8.40;94.70
3418;DHT22;68007;51.312;12.372;2023-04-25T07:42:31;8.30;94.80
3418;DHT22;68007;51.312;12.372;2023-04-25T07:45:00;8.30;95.00
3418;DHT22;68007;51.312;12.372;2023-04-25T07:47:27;8.40;94.90
3418;DHT22;68007;51.312;12.372;2023-04-25T07:49:55;8.40;94.90
3418;DHT22;68007;51.312;12.372;2023-04-25T07:52:24;8.40;94.90
3418;DHT22;68007;51.312;12.372;2023-04-25T07:54:51;8.40;94.90
3418;DHT22;68007;51.312;12.372;2023-04-25T07:57:19;8.40;95.00
3418;DHT22;68007;51.312;12.372;2023-04-25T07:59:48;8.50;94.80
3418;DHT22;68007;51.312;12.372;2023-04-25T08:02:16;8.60;94.60
3418;DHT22;68007;51.312;12.372;2023-04-25T08:04:43;8.50;94.80
3418;DHT22;68007;51.312;12.372;2023-04-25T08:07:11;8.40;95.00
3418;DHT22;68007;51.312;12.372;2023-04-25T08:09:38;8.50;94.90
3418;DHT22;68007;51.312;12.372;2023-04-25T08:12:06;8.60;94.70
3418;DHT22;68007;51.312;12.372;2023-04-25T08:14:34;8.80;94.30
3418;DHT22;68007;51.312;12.372;2023-04-25T08:17:04;8.80;94.30
3418;DHT22;68007;51.312;12.372;2023-04-25T08:19:32;8.80;93.60
3418;DHT22;68007;51.312;12.372;2023-04-25T08:21:59;8.80;93.20
3418;DHT22;68007;51.312;12.372;2023-04-25T08:24:27;8.90;92.40
3418;DHT22;68007;51.312;12.372;2023-04-25T08:26:54;8.90;91.60
3418;DHT22;68007;51.312;12.372;2023-04-25T08:29:22;8.90;91.40
3418;DHT22;68007;51.312;12.372;2023-04-25T08:31:51;8.90;90.70
3418;DHT22;68007;51.312;12.372;2023-04-25T08:34:21;9.00;90.40
3418;DHT22;68007;51.312;12.372;2023-04-25T08:36:48;9.00;90.60
3418;DHT22;68007;51.312;12.372;2023-04-25T08:39:16;9.00;90.50
3418;DHT22;68007;51.312;12.372;2023-04-25T08:41:44;9.00;90.50
3418;DHT22;68007;51.312;12.372;2023-04-25T08:44:12;9.10;90.30
3418;DHT22;68007;51.312;12.372;2023-04-25T08:46:41;9.20;90.10
3418;DHT22;68007;51.312;12.372;2023-04-25T08:49:08;9.20;90.20
3418;DHT22;68007;51.312;12.372;2023-04-25T08:51:44;9.10;88.50
3418;DHT22;68007;51.312;12.372;2023-04-25T08:54:14;9.10;89.20
3418;DHT22;68007;51.312;12.372;2023-04-25T08:56:45;9.20;89.90
3418;DHT22;68007;51.312;12.372;2023-04-25T08:59:12;9.20;89.20
3418;DHT22;68007;51.312;12.372;2023-04-25T09:01:40;9.20;89.60
3418;DHT22;68007;51.312;12.372;2023-04-25T09:04:07;9.30;89.70
3418;DHT22;68007;51.312;12.372;2023-04-25T09:06:36;9.30;89.40
3418;DHT22;68007;51.312;12.372;2023-04-25T09:09:05;9.30;88.50
3418;DHT22;68007;51.312;12.372;2023-04-25T09:11:33;9.30;88.90
3418;DHT22;68007;51.312;12.372;2023-04-25T09:14:14;9.40;88.70
3418;DHT22;68007;51.312;12.372;2023-04-25T09:17:01;9.40;87.90
3418;DHT22;68007;51.312;12.372;2023-04-25T09:19:30;9.50;88.40
3418;DHT22;68007;51.312;12.372;2023-04-25T09:22:00;9.50;88.40
3418;DHT22;68007;51.312;12.372;2023-04-25T09:24:33;9.60;87.80
3418;DHT22;68007;51.312;12.372;2023-04-25T09:27:03;9.70;88.50
3418;DHT22;68007;51.312;12.372;2023-04-25T09:29:32;9.80;88.40
3418;DHT22;68007;51.312;12.372;2023-04-25T09:32:14;9.80;87.80
3418;DHT22;68007;51.312;12.372;2023-04-25T09:34:43;9.70;87.70
3418;DHT22;68007;51.312;12.372;2023-04-25T09:37:13;9.80;87.50
3418;DHT22;68007;51.312;12.372;2023-04-25T09:39:45;9.90;86.90
3418;DHT22;68007;51.312;12.372;2023-04-25T09:42:12;9.90;86.50
3418;DHT22;68007;51.312;12.372;2023-04-25T09:44:43;9.90;86.30
3418;DHT22;68007;51.312;12.372;2023-04-25T09:47:11;9.90;86.60
3418;DHT22;68007;51.312;12.372;2023-04-25T09:49:40;9.90;87.00
3418;DHT22;68007;51.312;12.372;2023-04-25T09:52:13;9.80;87.40
3418;DHT22;68007;51.312;12.372;2023-04-25T09:54:42;9.80;87.30
3418;DHT22;68007;51.312;12.372;2023-04-25T09:57:11;9.80;89.20
3418;DHT22;68007;51.312;12.372;2023-04-25T09:59:43;9.80;88.50
3418;DHT22;68007;51.312;12.372;2023-04-25T10:02:11;9.80;87.70
3418;DHT22;68007;51.312;12.372;2023-04-25T10:04:39;9.80;88.00
3418;DHT22;68007;51.312;12.372;2023-04-25T10:07:08;9.80;88.00
3418;DHT22;68007;51.312;12.372;2023-04-25T10:09:38;9.80;88.20
3418;DHT22;68007;51.312;12.372;2023-04-25T10:12:08;9.90;87.90
3418;DHT22;68007;51.312;12.372;2023-04-25T10:14:36;10.00;88.10
3418;DHT22;68007;51.312;12.372;2023-04-25T10:17:03;10.00;88.00
3418;DHT22;68007;51.312;12.372;2023-04-25T10:19:31;9.90;86.80
3418;DHT22;68007;51.312;12.372;2023-04-25T10:22:06;9.80;87.20
3418;DHT22;68007;51.312;12.372;2023-04-25T10:24:35;9.80;86.90
3418;DHT22;68007;51.312;12.372;2023-04-25T10:27:03;9.80;87.10
3418;DHT22;68007;51.312;12.372;2023-04-25T10:29:32;9.60;87.30
3418;DHT22;68007;51.312;12.372;2023-04-25T10:32:00;9.60;87.70
3418;DHT22;68007;51.312;12.372;2023-04-25T10:34:38;9.70;88.20
3418;DHT22;68007;51.312;12.372;2023-04-25T10:37:09;9.70;87.50
3418;DHT22;68007;51.312;12.372;2023-04-25T10:39:38;9.60;87.80
3418;DHT22;68007;51.312;12.372;2023-04-25T10:42:07;9.50;88.30
3418;DHT22;68007;51.312;12.372;2023-04-25T10:44:37;9.50;88.70
3418;DHT22;68007;51.312;12.372;2023-04-25T10:47:07;9.50;88.70
3418;DHT22;68007;51.312;12.372;2023-04-25T10:49:36;9.70;88.80
3418;DHT22;68007;51.312;12.372;2023-04-25T10:52:18;9.80;88.00
3418;DHT22;68007;51.312;12.372;2023-04-25T10:54:47;9.80;87.70
3418;DHT22;68007;51.312;12.372;2023-04-25T10:57:30;9.80;88.30
3418;DHT22;68007;51.312;12.372;2023-04-25T11:00:00;9.80;88.50
3418;DHT22;68007;51.312;12.372;2023-04-25T11:02:29;9.70;88.70
3418;DHT22;68007;51.312;12.372;2023-04-25T11:04:57;9.70;88.90
3418;DHT22;68007;51.312;12.372;2023-04-25T11:07:31;9.70;89.10
3418;DHT22;68007;51.312;12.372;2023-04-25T11:10:03;9.70;88.70
3418;DHT22;68007;51.312;12.372;2023-04-25T11:12:31;9.40;89.90
3418;DHT22;68007;51.312;12.372;2023-04-25T11:15:02;9.50;90.10
3418;DHT22;68007;51.312;12.372;2023-04-25T11:17:30;9.60;89.60
3418;DHT22;68007;51.312;12.372;2023-04-25T11:19:59;9.70;89.10
3418;DHT22;68007;51.312;12.372;2023-04-25T11:22:27;9.80;89.70
3418;DHT22;68007;51.312;12.372;2023-04-25T11:24:56;9.90;89.40
3418;DHT22;68007;51.312;12.372;2023-04-25T11:27:23;9.90;89.30
3418;DHT22;68007;51.312;12.372;2023-04-25T11:29:51;10.00;89.50
3418;DHT22;68007;51.312;12.372;2023-04-25T11:32:20;9.80;88.00
3418;DHT22;68007;51.312;12.372;2023-04-25T11:34:48;9.80;87.70
3418;DHT22;68007;51.312;12.372;2023-04-25T11:37:16;9.80;88.50
3418;DHT22;68007;51.312;12.372;2023-04-25T11:39:44;9.90;87.50
3418;DHT22;68007;51.312;12.372;2023-04-25T11:42:13;9.90;86.60
3418;DHT22;68007;51.312;12.372;2023-04-25T11:44:40;9.80;85.20
3418;DHT22;68007;51.312;12.372;2023-04-25T11:47:08;9.80;85.20
3418;DHT22;68007;51.312;12.372;2023-04-25T11:49:37;9.70;85.40
3418;DHT22;68007;51.312;12.372;2023-04-25T11:52:06;9.80;85.20
3418;DHT22;68007;51.312;12.372;2023-04-25T11:54:35;9.80;81.90
3418;DHT22;68007;51.312;12.372;2023-04-25T11:57:03;9.70;81.80
3418;DHT22;68007;51.312;12.372;2023-04-25T11:59:31;9.80;81.20
3418;DHT22;68007;51.312;12.372;2023-04-25T12:01:59;9.70;80.40
3418;DHT22;68007;51.312;12.372;2023-04-25T12:04:30;9.70;81.00
3418;DHT22;68007;51.312;12.372;2023-04-25T12:06:59;9.70;80.70
3418;DHT22;68007;51.312;12.372;2023-04-25T12:09:29;9.70;80.60
3418;DHT22;68007;51.312;12.372;2023-04-25T12:11:59;9.70;80.90
3418;DHT22;68007;51.312;12.372;2023-04-25T12:14:29;9.60;80.90
3418;DHT22;68007;51.312;12.372;2023-04-25T12:16:59;9.50;80.90
3418;DHT22;68007;51.312;12.372;2023-04-25T12:19:31;9.60;81.30
3418;DHT22;68007;51.312;12.372;2023-04-25T12:22:01;9.80;81.30
3418;DHT22;68007;51.312;12.372;2023-04-25T12:24:33;9.80;79.40
3418;DHT22;68007;51.312;12.372;2023-04-25T12:27:03;9.80;79.50
3418;DHT22;68007;51.312;12.372;2023-04-25T12:29:33;9.90;79.90
3418;DHT22;68007;51.312;12.372;2023-04-25T12:32:01;10.00;78.30
3418;DHT22;68007;51.312;12.372;2023-04-25T12:34:29;9.90;78.30
3418;DHT22;68007;51.312;12.372;2023-04-25T12:36:58;9.80;78.30
3418;DHT22;68007;51.312;12.372;2023-04-25T12:39:27;9.70;79.20
3418;DHT22;68007;51.312;12.372;2023-04-25T12:41:54;9.70;80.20
3418;DHT22;68007;51.312;12.372;2023-04-25T12:44:22;9.50;80.10
3418;DHT22;68007;51.312;12.372;2023-04-25T12:46:50;9.50;82.00
3418;DHT22;68007;51.312;12.372;2023-04-25T12:49:17;9.60;81.70
3418;DHT22;68007;51.312;12.372;2023-04-25T12:51:45;9.50;80.40
3418;DHT22;68007;51.312;12.372;2023-04-25T12:54:12;9.50;79.80
3418;DHT22;68007;51.312;12.372;2023-04-25T12:56:42;9.60;80.10
3418;DHT22;68007;51.312;12.372;2023-04-25T12:59:09;9.70;79.60
3418;DHT22;68007;51.312;12.372;2023-04-25T13:01:37;9.80;79.20
3418;DHT22;68007;51.312;12.372;2023-04-25T13:04:05;9.90;80.20
3418;DHT22;68007;51.312;12.372;2023-04-25T13:06:32;9.90;79.20
3418;DHT22;68007;51.312;12.372;2023-04-25T13:08:59;10.00;78.00
3418;DHT22;68007;51.312;12.372;2023-04-25T13:11:28;9.90;74.30
3418;DHT22;68007;51.312;12.372;2023-04-25T13:13:57;9.90;75.70
3418;DHT22;68007;51.312;12.372;2023-04-25T13:16:24;10.00;79.80
3418;DHT22;68007;51.312;12.372;2023-04-25T13:18:52;10.20;80.60
3418;DHT22;68007;51.312;12.372;2023-04-25T13:21:19;10.10;75.90
3418;DHT22;68007;51.312;12.372;2023-04-25T13:23:47;10.30;77.00
3418;DHT22;68007;51.312;12.372;2023-04-25T13:26:14;10.30;73.10
3418;DHT22;68007;51.312;12.372;2023-04-25T13:28:42;10.10;69.40
3418;DHT22;68007;51.312;12.372;2023-04-25T13:31:11;10.10;70.40
3418;DHT22;68007;51.312;12.372;2023-04-25T13:33:38;10.10;68.90
3418;DHT22;68007;51.312;12.372;2023-04-25T13:36:06;10.10;67.90
3418;DHT22;68007;51.312;12.372;2023-04-25T13:38:35;10.10;67.50
3418;DHT22;68007;51.312;12.372;2023-04-25T13:41:03;10.20;68.20
3418;DHT22;68007;51.312;12.372;2023-04-25T13:43:33;10.30;68.50
3418;DHT22;68007;51.312;12.372;2023-04-25T13:46:01;10.40;67.60
3418;DHT22;68007;51.312;12.372;2023-04-25T13:48:29;10.50;66.60
3418;DHT22;68007;51.312;12.372;2023-04-25T13:50:57;10.60;67.90
3418;DHT22;68007;51.312;12.372;2023-04-25T13:53:25;10.70;65.70
3418;DHT22;68007;51.312;12.372;2023-04-25T13:55:52;10.80;67.20
3418;DHT22;68007;51.312;12.372;2023-04-25T13:58:20;10.90;67.90
3418;DHT22;68007;51.312;12.372;2023-04-25T14:00:47;11.00;65.80
3418;DHT22;68007;51.312;12.372;2023-04-25T14:03:15;11.10;65.60
3418;DHT22;68007;51.312;12.372;2023-04-25T14:05:43;11.20;65.00
3418;DHT22;68007;51.312;12.372;2023-04-25T14:08:11;11.30;67.20
3418;DHT22;68007;51.312;12.372;2023-04-25T14:10:38;11.30;65.30
3418;DHT22;68007;51.312;12.372;2023-04-25T14:13:06;11.30;65.20
3418;DHT22;68007;51.312;12.372;2023-04-25T14:15:34;11.30;62.80
3418;DHT22;68007;51.312;12.372;2023-04-25T14:18:02;11.20;63.20
3418;DHT22;68007;51.312;12.372;2023-04-25T14:20:29;11.10;60.80
3418;DHT22;68007;51.312;12.372;2023-04-25T14:22:58;11.00;60.60
3418;DHT22;68007;51.312;12.372;2023-04-25T14:25:26;11.00;58.80
3418;DHT22;68007;51.312;12.372;2023-04-25T14:27:53;10.90;60.90
3418;DHT22;68007;51.312;12.372;2023-04-25T14:30:21;11.00;58.80
3418;DHT22;68007;51.312;12.372;2023-04-25T14:32:49;10.90;59.10
3418;DHT22;68007;51.312;12.372;2023-04-25T14:35:17;10.80;57.70
3418;DHT22;68007;51.312;12.372;2023-04-25T14:37:44;10.70;59.40
3418;DHT22;68007;51.312;12.372;2023-04-25T14:40:13;10.70;57.90
3418;DHT22;68007;51.312;12.372;2023-04-25T14:42:43;10.60;57.60
3418;DHT22;68007;51.312;12.372;2023-04-25T14:45:10;10.50;58.70
3418;DHT22;68007;51.312;12.372;2023-04-25T14:47:38;10.50;59.10
3418;DHT22;68007;51.312;12.372;2023-04-25T14:50:07;10.60;59.60
3418;DHT22;68007;51.312;12.372;2023-04-25T14:52:35;10.60;59.40
3418;DHT22;68007;51.312;12.372;2023-04-25T14:55:03;10.70;59.00
3418;DHT22;68007;51.312;12.372;2023-04-25T14:57:33;10.70;58.00
3418;DHT22;68007;51.312;12.372;2023-04-25T15:00:02;10.80;57.50
3418;DHT22;68007;51.312;12.372;2023-04-25T15:02:31;10.80;57.10
3418;DHT22;68007;51.312;12.372;2023-04-25T15:04:58;10.80;57.00
3418;DHT22;68007;51.312;12.372;2023-04-25T15:07:26;10.80;56.20
3418;DHT22;68007;51.312;12.372;2023-04-25T15:09:54;10.80;56.30
3418;DHT22;68007;51.312;12.372;2023-04-25T15:12:22;10.70;58.40
3418;DHT22;68007;51.312;12.372;2023-04-25T15:14:53;10.60;58.60
3418;DHT22;68007;51.312;12.372;2023-04-25T15:17:21;10.60;60.30
3418;DHT22;68007;51.312;12.372;2023-04-25T15:19:48;10.60;60.00
3418;DHT22;68007;51.312;12.372;2023-04-25T15:22:16;10.70;60.20
3418;DHT22;68007;51.312;12.372;2023-04-25T15:24:43;10.60;60.70
3418;DHT22;68007;51.312;12.372;2023-04-25T15:27:12;10.60;60.90
3418;DHT22;68007;51.312;12.372;2023-04-25T15:29:39;10.60;59.90
3418;DHT22;68007;51.312;12.372;2023-04-25T15:32:09;10.50;59.80
3418;DHT22;68007;51.312;12.372;2023-04-25T15:34:36;10.50;59.70
3418;DHT22;68007;51.312;12.372;2023-04-25T15:37:04;10.50;59.10
3418;DHT22;68007;51.312;12.372;2023-04-25T15:39:31;10.40;59.20
3418;DHT22;68007;51.312;12.372;2023-04-25T15:41:59;10.40;58.90
3418;DHT22;68007;51.312;12.372;2023-04-25T15:44:27;10.40;59.00
3418;DHT22;68007;51.312;12.372;2023-04-25T15:46:54;10.60;60.00
3418;DHT22;68007;51.312;12.372;2023-04-25T15:49:23;10.70;60.60